createdAt,value
2022-08-02T00:03:19.561Z,1004.24
2022-08-02T00:08:19.488Z,1004.18
2022-08-02T00:13:19.438Z,1004.06
2022-08-02T00:18:19.377Z,1004.07
2022-08-02T00:23:19.558Z,1003.93
2022-08-02T00:28:26.920Z,1004.07
2022-08-02T00:34:27.175Z,1004.07
2022-08-02T00:38:20.090Z,1004.09
2022-08-02T00:43:19.022Z,1004.08
2022-08-02T00:48:18.974Z,1003.98
2022-08-02T00:53:18.915Z,1004.08
2022-08-02T00:58:18.854Z,1004.09
2022-08-02T01:03:18.771Z,1004.18
2022-08-02T01:13:04.600Z,1004.04
2022-08-02T01:18:04.511Z,1004.05
2022-08-02T01:23:04.445Z,1004.17
2022-08-02T01:28:04.391Z,1004.11
2022-08-02T01:33:04.321Z,1004.07
2022-08-02T01:38:04.261Z,1004.12
2022-08-02T01:43:04.760Z,1004.15
2022-08-02T01:48:04.144Z,1004.25
2022-08-02T01:53:04.054Z,1004.31
2022-08-02T01:58:03.994Z,1004.23
2022-08-02T02:03:03.925Z,1004.25
2022-08-02T02:08:03.875Z,1004.22
2022-08-02T02:13:03.803Z,1004.28
2022-08-02T02:18:13.115Z,1004.39
2022-08-02T02:23:04.676Z,1004.40
2022-08-02T02:28:03.758Z,1004.29
2022-08-02T02:33:03.689Z,1004.36
2022-08-02T02:38:03.475Z,1004.43
2022-08-02T02:43:03.389Z,1004.44
2022-08-02T02:48:03.329Z,1004.41
2022-08-02T02:53:03.281Z,1004.43
2022-08-02T02:58:03.217Z,1004.53
2022-08-02T03:03:04.330Z,1004.62
2022-08-02T03:08:03.073Z,1004.62
2022-08-02T03:13:02.990Z,1004.61
2022-08-02T03:18:02.923Z,1004.72
2022-08-02T03:23:02.851Z,1004.75
2022-08-02T03:28:02.797Z,1004.70
2022-08-02T03:33:02.731Z,1004.54
2022-08-02T03:38:02.842Z,1004.47
2022-08-02T03:43:02.613Z,1004.54
2022-08-02T03:48:02.536Z,1004.71
2022-08-02T03:53:03.497Z,1004.80
2022-08-02T03:58:02.432Z,1004.82
2022-08-02T04:03:02.325Z,1004.85
2022-08-02T04:08:34.080Z,1004.84
2022-08-02T04:13:03.202Z,1004.87
2022-08-02T04:18:02.132Z,1004.89
2022-08-02T04:23:02.076Z,1004.88
2022-08-02T04:28:17.379Z,1005.02
2022-08-02T04:33:02.995Z,1005.01
2022-08-02T04:38:08.816Z,1005.09
2022-08-02T04:43:02.825Z,1005.27
2022-08-02T04:48:04.916Z,1005.19
2022-08-02T04:53:01.712Z,1005.26
2022-08-02T04:58:04.076Z,1005.47
2022-08-02T05:03:02.564Z,1005.37
2022-08-02T05:08:01.503Z,1005.45
2022-08-02T05:13:01.411Z,1005.46
2022-08-02T05:18:01.349Z,1005.36
2022-08-02T05:23:01.312Z,1005.47
2022-08-02T05:28:01.214Z,1005.46
2022-08-02T05:33:01.149Z,1005.45
2022-08-02T05:38:01.099Z,1005.56
2022-08-02T05:43:01.050Z,1005.30
2022-08-02T05:48:01.162Z,1005.34
2022-08-02T05:53:00.907Z,1005.26
2022-08-02T05:58:00.854Z,1005.26
2022-08-02T06:03:00.776Z,1005.29
2022-08-02T06:08:00.704Z,1005.31
2022-08-02T06:13:00.634Z,1005.57
2022-08-02T06:18:00.588Z,1005.70
2022-08-02T06:23:00.600Z,1005.50
2022-08-02T06:28:00.502Z,1005.70
2022-08-02T06:33:00.464Z,1005.80
2022-08-02T06:38:02.214Z,1005.82
2022-08-02T06:43:00.293Z,1005.75
2022-08-02T06:48:00.230Z,1005.55
2022-08-02T06:53:00.199Z,1005.38
2022-08-02T06:58:00.115Z,1005.33
2022-08-02T07:03:00.026Z,1005.47
2022-08-02T07:07:59.966Z,1005.48
2022-08-02T07:13:00.111Z,1005.47
2022-08-02T07:17:59.891Z,1005.54
2022-08-02T07:22:59.849Z,1005.47
2022-08-02T07:27:59.732Z,1005.49
2022-08-02T07:32:59.692Z,1005.44
2022-08-02T07:38:02.217Z,1005.28
2022-08-02T07:43:03.895Z,1005.01
2022-08-02T07:47:59.491Z,1005.14
2022-08-02T07:52:59.444Z,1005.14
2022-08-02T07:57:59.837Z,1005.17
2022-08-02T08:02:59.397Z,1005.19
2022-08-02T08:07:59.319Z,1005.04
2022-08-02T08:12:59.251Z,1004.99
2022-08-02T08:17:59.180Z,1004.96
2022-08-02T08:22:59.062Z,1004.92
2022-08-02T08:27:59.012Z,1004.93
2022-08-02T08:32:58.974Z,1004.90
2022-08-02T08:37:58.917Z,1004.94
2022-08-02T08:42:58.857Z,1004.81
2022-08-02T08:47:58.775Z,1004.77
2022-08-02T08:52:58.708Z,1004.75
2022-08-02T08:57:58.649Z,1004.72
2022-08-02T09:02:58.766Z,1004.74
2022-08-02T09:07:58.813Z,1004.64
2022-08-02T09:12:58.476Z,1004.55
2022-08-02T09:17:58.399Z,1004.49
2022-08-02T09:22:58.339Z,1004.57
2022-08-02T09:27:58.289Z,1004.48
2022-08-02T09:32:58.219Z,1004.58
2022-08-02T09:37:59.181Z,1004.47
2022-08-02T09:42:58.081Z,1004.40
2022-08-02T09:47:58.023Z,1004.27
2022-08-02T09:52:57.994Z,1004.27
2022-08-02T09:57:57.906Z,1004.27
2022-08-02T10:02:57.847Z,1004.27
2022-08-02T10:07:57.983Z,1004.33
2022-08-02T10:12:57.698Z,1004.11
2022-08-02T10:17:57.704Z,1004.11
2022-08-02T10:22:57.600Z,1004.11
2022-08-02T10:28:05.135Z,1004.08
2022-08-02T10:32:58.452Z,1004.04
2022-08-02T10:37:57.435Z,1004.11
2022-08-02T10:42:57.353Z,1003.95
2022-08-02T10:47:57.264Z,1003.87
2022-08-02T10:52:57.214Z,1003.81
2022-08-02T10:57:57.126Z,1003.77
2022-08-02T11:02:57.057Z,1003.74
2022-08-02T11:07:57.049Z,1003.57
2022-08-02T11:12:56.983Z,1003.66
2022-08-02T11:17:56.910Z,1003.65
2022-08-02T11:22:56.852Z,1003.79
2022-08-02T11:27:57.012Z,1003.80
2022-08-02T11:32:56.706Z,1003.81
2022-08-02T11:37:56.622Z,1003.79
2022-08-02T11:42:56.556Z,1003.80
2022-08-02T11:47:56.491Z,1003.76
2022-08-02T11:52:56.450Z,1003.67
2022-08-02T11:58:01.720Z,1003.61
2022-08-02T12:02:57.402Z,1003.46
2022-08-02T12:07:56.239Z,1003.48
2022-08-02T12:12:56.180Z,1003.41
2022-08-02T12:17:56.294Z,1003.33
2022-08-02T12:22:56.053Z,1003.42
2022-08-02T12:27:56.015Z,1003.33
2022-08-02T12:32:55.937Z,1003.24
2022-08-02T12:37:55.907Z,1003.19
2022-08-02T12:42:55.827Z,1003.07
2022-08-02T12:47:55.727Z,1003.02
2022-08-02T12:52:55.661Z,1003.10
2022-08-02T12:57:55.601Z,1002.99
2022-08-02T13:02:55.541Z,1003.06
2022-08-02T13:07:55.483Z,1003.05
2022-08-02T13:12:55.440Z,1002.97
2022-08-02T13:17:55.345Z,1002.87
2022-08-02T13:22:55.447Z,1002.91
2022-08-02T13:27:56.230Z,1002.84
2022-08-02T13:32:59.184Z,1002.87
2022-08-02T13:37:56.121Z,1002.88
2022-08-02T13:42:55.033Z,1002.72
2022-08-02T13:48:03.785Z,1002.66
2022-08-02T13:52:55.907Z,1002.68
2022-08-02T13:57:54.849Z,1002.71
2022-08-02T14:02:54.774Z,1002.62
2022-08-02T14:07:54.756Z,1002.62
2022-08-02T14:12:56.453Z,1002.51
2022-08-02T14:17:54.595Z,1002.56
2022-08-02T14:22:54.817Z,1002.51
2022-08-02T14:27:54.520Z,1002.50
2022-08-02T14:32:54.391Z,1002.40
2022-08-02T14:37:54.332Z,1002.40
2022-08-02T14:42:54.285Z,1002.39
2022-08-02T14:47:54.217Z,1002.27
2022-08-02T14:52:54.135Z,1002.26
2022-08-02T14:57:54.088Z,1002.17
2022-08-02T15:02:54.016Z,1002.26
2022-08-02T15:07:53.979Z,1002.26
2022-08-02T15:12:53.893Z,1002.27
2022-08-02T15:17:53.862Z,1002.19
2022-08-02T15:22:53.762Z,1002.02
2022-08-02T15:27:53.692Z,1001.92
2022-08-02T15:32:53.913Z,1002.00
2022-08-02T15:37:53.576Z,1002.01
2022-08-02T15:42:53.507Z,1001.93
2022-08-02T15:47:53.478Z,1002.03
2022-08-02T15:52:53.367Z,1002.05
2022-08-02T15:57:53.330Z,1002.07
2022-08-02T16:02:53.266Z,1002.08
2022-08-02T16:07:53.221Z,1002.02
2022-08-02T16:12:53.166Z,1002.01
2022-08-02T16:17:54.410Z,1002.01
2022-08-02T16:22:53.143Z,1002.00
2022-08-02T16:27:59.402Z,1001.95
2022-08-02T16:32:53.875Z,1001.99
2022-08-02T16:37:53.026Z,1001.89
2022-08-02T16:42:52.769Z,1001.90
2022-08-02T16:47:56.551Z,1001.94
2022-08-02T16:52:53.646Z,1001.94
2022-08-02T16:57:52.572Z,1001.97
2022-08-02T17:02:52.533Z,1001.93
2022-08-02T17:08:15.167Z,1001.91
2022-08-02T17:12:53.365Z,1001.90
2022-08-02T17:17:52.355Z,1001.92
2022-08-02T17:22:52.236Z,1001.96
2022-08-02T17:27:55.690Z,1002.02
2022-08-02T17:32:52.148Z,1002.05
2022-08-02T17:37:54.790Z,1002.09
2022-08-02T17:42:53.180Z,1002.17
2022-08-02T17:48:03.753Z,1002.12
2022-08-02T17:52:53.300Z,1002.08
2022-08-02T17:57:58.286Z,1002.08
2022-08-02T18:02:55.524Z,1002.06
2022-08-02T18:07:56.709Z,1002.14
2022-08-02T18:12:52.686Z,1002.03
2022-08-02T18:17:51.556Z,1002.19
2022-08-02T18:22:55.748Z,1002.14
2022-08-02T18:27:52.440Z,1002.17
2022-08-02T18:33:58.191Z,1002.21
2022-08-02T18:37:57.253Z,1002.25
2022-08-02T18:42:52.242Z,1002.32
2022-08-02T18:47:51.432Z,1002.31
2022-08-02T18:52:51.110Z,1002.25
2022-08-02T18:58:18.039Z,1002.38
2022-08-02T19:02:51.962Z,1002.34
2022-08-02T19:07:52.895Z,1002.34
2022-08-02T19:12:51.626Z,1002.46
2022-08-02T19:17:54.865Z,1002.46
2022-08-02T19:22:53.542Z,1002.54
2022-08-02T19:27:50.689Z,1002.59
2022-08-02T19:32:59.461Z,1002.51
2022-08-02T19:37:51.574Z,1002.54
2022-08-02T19:44:23.315Z,1002.62
2022-08-02T19:47:54.465Z,1002.64
2022-08-02T19:52:52.892Z,1002.71
2022-08-02T19:57:50.274Z,1002.72
2022-08-02T20:02:50.284Z,1002.70
2022-08-02T20:07:56.045Z,1002.84
2022-08-02T20:12:51.075Z,1002.78
2022-08-02T20:17:50.087Z,1002.87
2022-08-02T20:22:49.948Z,1002.93
2022-08-02T20:27:51.220Z,1002.96
2022-08-02T20:32:53.066Z,1002.90
2022-08-02T20:37:59.926Z,1002.94
2022-08-02T20:42:50.677Z,1002.93
2022-08-02T20:47:51.103Z,1003.07
2022-08-02T20:52:49.871Z,1003.03
2022-08-02T20:58:00.872Z,1003.01
2022-08-02T21:02:50.517Z,1003.01
2022-08-02T21:07:53.431Z,1002.96
2022-08-02T21:12:50.268Z,1002.93
2022-08-02T21:17:53.473Z,1002.99
2022-08-02T21:22:50.135Z,1002.94
2022-08-02T21:27:53.412Z,1002.92
2022-08-02T21:32:49.002Z,1002.99
2022-08-02T21:37:48.946Z,1003.03
2022-08-02T21:42:49.869Z,1002.97
2022-08-02T21:47:48.801Z,1003.01
2022-08-02T21:52:52.417Z,1002.99
2022-08-02T21:57:48.831Z,1003.04
2022-08-02T22:02:48.693Z,1002.97
2022-08-02T22:07:48.555Z,1002.98
2022-08-02T22:12:48.467Z,1002.91
2022-08-02T22:17:53.541Z,1002.92
2022-08-02T22:22:50.384Z,1002.99
2022-08-02T22:28:15.793Z,1003.00
2022-08-02T22:32:49.218Z,1002.93
2022-08-02T22:38:16.536Z,1003.08
2022-08-02T22:42:49.097Z,1003.12
2022-08-02T22:47:51.166Z,1003.17
2022-08-02T22:52:50.454Z,1003.12
2022-08-02T23:02:49.032Z,1003.20
2022-08-02T23:07:47.762Z,1003.14
2022-08-02T23:12:47.712Z,1003.15
2022-08-02T23:17:47.633Z,1003.19
2022-08-02T23:22:47.581Z,1003.21
2022-08-02T23:27:50.280Z,1003.27
2022-08-02T23:32:47.640Z,1003.22
2022-08-02T23:37:59.760Z,1003.14
2022-08-02T23:42:48.305Z,1003.29
2022-08-02T23:47:47.278Z,1003.28
2022-08-02T23:52:47.196Z,1003.22
2022-08-02T23:57:47.106Z,1003.26
